createdAt,value
2023-03-30T00:00:01.978Z,0.00
2023-03-30T00:01:02.150Z,0.00
2023-03-30T00:02:01.915Z,0.00
2023-03-30T00:03:02.017Z,0.00
2023-03-30T00:04:02.096Z,0.00
2023-03-30T00:05:02.041Z,0.00
2023-03-30T00:06:01.979Z,0.00
2023-03-30T00:07:02.021Z,0.00
2023-03-30T00:08:02.030Z,0.00
2023-03-30T00:09:02.048Z,0.00
2023-03-30T00:10:02.048Z,0.00
2023-03-30T00:11:02.343Z,0.00
2023-03-30T00:12:02.073Z,0.00
2023-03-30T00:13:02.105Z,0.00
2023-03-30T00:14:02.116Z,0.00
2023-03-30T00:15:02.152Z,0.00
2023-03-30T00:16:02.154Z,0.00
2023-03-30T00:17:02.177Z,0.00
2023-03-30T00:18:02.206Z,0.00
2023-03-30T00:19:02.187Z,0.00
2023-03-30T00:20:02.296Z,0.00
2023-03-30T00:21:02.430Z,0.00
2023-03-30T00:22:02.314Z,0.00
2023-03-30T00:23:02.308Z,0.00
2023-03-30T00:24:02.338Z,0.00
2023-03-30T00:25:02.377Z,0.00
2023-03-30T00:26:02.358Z,0.00
2023-03-30T00:27:02.383Z,0.00
2023-03-30T00:28:02.374Z,0.00
2023-03-30T00:29:02.410Z,0.00
2023-03-30T00:30:02.417Z,0.00
2023-03-30T00:31:03.076Z,0.00
2023-03-30T00:32:02.468Z,0.00
2023-03-30T00:33:02.516Z,0.00
2023-03-30T00:34:02.491Z,0.00
2023-03-30T00:35:02.524Z,0.00
2023-03-30T00:36:02.588Z,0.00
2023-03-30T00:37:02.799Z,0.00
2023-03-30T00:38:02.600Z,0.00
2023-03-30T00:39:03.723Z,0.00
2023-03-30T00:40:02.723Z,0.00
2023-03-30T00:41:02.929Z,0.00
2023-03-30T00:42:02.736Z,0.00
2023-03-30T00:43:02.789Z,0.00
2023-03-30T00:44:02.775Z,0.00
2023-03-30T00:45:02.843Z,0.00
2023-03-30T00:46:02.983Z,0.00
2023-03-30T00:47:03.021Z,0.00
2023-03-30T00:48:03.026Z,0.00
2023-03-30T00:49:03.046Z,0.00
2023-03-30T00:50:03.031Z,0.00
2023-03-30T00:51:03.391Z,0.00
2023-03-30T00:52:05.817Z,0.00
2023-03-30T00:53:03.142Z,0.00
2023-03-30T00:54:04.132Z,0.00
2023-03-30T00:55:03.223Z,0.00
2023-03-30T00:56:03.219Z,0.00
2023-03-30T00:57:03.217Z,0.00
2023-03-30T00:58:03.278Z,0.00
2023-03-30T00:59:03.340Z,0.00
2023-03-30T01:00:04.239Z,0.00
2023-03-30T01:01:03.601Z,0.00
2023-03-30T01:02:03.459Z,0.00
2023-03-30T01:03:03.428Z,0.00
2023-03-30T01:04:03.509Z,0.00
2023-03-30T01:05:03.465Z,0.00
2023-03-30T01:06:03.535Z,0.00
2023-03-30T01:07:03.548Z,0.00
2023-03-30T01:08:03.597Z,0.00
2023-03-30T01:09:03.632Z,0.00
2023-03-30T01:10:03.622Z,0.00
2023-03-30T01:11:03.875Z,0.00
2023-03-30T01:12:03.683Z,0.00
2023-03-30T01:13:03.688Z,0.00
2023-03-30T01:14:03.710Z,0.00
2023-03-30T01:15:03.723Z,0.00
2023-03-30T01:16:03.777Z,0.00
2023-03-30T01:17:03.760Z,0.00
2023-03-30T01:18:03.861Z,0.00
2023-03-30T01:19:03.789Z,0.00
2023-03-30T01:20:03.807Z,0.00
2023-03-30T01:21:04.026Z,0.00
2023-03-30T01:22:03.826Z,0.00
2023-03-30T01:23:03.834Z,0.00
2023-03-30T01:24:03.852Z,0.00
2023-03-30T01:25:03.868Z,0.00
2023-03-30T01:26:03.886Z,0.00
2023-03-30T01:27:03.903Z,0.00
2023-03-30T01:28:03.934Z,0.00
2023-03-30T01:29:03.993Z,0.00
2023-03-30T01:30:04.028Z,0.00
2023-03-30T01:31:04.243Z,0.00
2023-03-30T01:32:04.073Z,0.00
2023-03-30T01:33:04.187Z,0.00
2023-03-30T01:34:04.110Z,0.00
2023-03-30T01:35:04.154Z,0.00
2023-03-30T01:36:04.177Z,0.00
2023-03-30T01:37:04.164Z,0.00
2023-03-30T01:38:04.186Z,0.00
2023-03-30T01:39:04.217Z,0.00
2023-03-30T01:40:04.220Z,0.00
2023-03-30T01:41:04.459Z,0.00
2023-03-30T01:42:04.523Z,0.00
2023-03-30T01:43:04.280Z,0.00
2023-03-30T01:44:04.300Z,0.00
2023-03-30T01:45:04.322Z,0.00
2023-03-30T01:46:04.343Z,0.00
2023-03-30T01:47:04.482Z,0.00
2023-03-30T01:48:04.409Z,0.00
2023-03-30T01:49:04.424Z,0.00
2023-03-30T01:50:04.556Z,0.00
2023-03-30T01:51:04.673Z,0.00
2023-03-30T01:52:04.495Z,0.00
2023-03-30T01:53:04.506Z,0.00
2023-03-30T01:54:04.519Z,0.00
2023-03-30T01:55:04.550Z,0.00
2023-03-30T01:56:04.560Z,0.00
2023-03-30T01:57:04.613Z,0.00
2023-03-30T01:58:04.616Z,0.00
2023-03-30T01:59:04.649Z,0.00
2023-03-30T02:00:04.664Z,0.00
2023-03-30T02:01:08.369Z,0.00
2023-03-30T02:02:04.839Z,0.00
2023-03-30T02:03:04.786Z,0.00
2023-03-30T02:04:04.831Z,0.00
2023-03-30T02:05:04.863Z,0.00
2023-03-30T02:06:04.866Z,0.00
2023-03-30T02:07:05.151Z,0.00
2023-03-30T02:08:04.912Z,0.00
2023-03-30T02:09:04.941Z,0.00
2023-03-30T02:10:05.168Z,0.00
2023-03-30T02:11:06.298Z,0.00
2023-03-30T02:12:05.068Z,0.00
2023-03-30T02:13:05.102Z,0.00
2023-03-30T02:14:05.149Z,0.00
2023-03-30T02:15:05.172Z,0.00
2023-03-30T02:16:05.265Z,0.00
2023-03-30T02:17:05.216Z,0.00
2023-03-30T02:18:06.432Z,0.00
2023-03-30T02:19:06.210Z,0.00
2023-03-30T02:20:06.219Z,0.00
2023-03-30T02:21:05.529Z,0.00
2023-03-30T02:22:05.320Z,0.00
2023-03-30T02:23:05.352Z,0.00
2023-03-30T02:24:06.074Z,0.00
2023-03-30T02:25:05.504Z,0.00
2023-03-30T02:26:05.444Z,0.00
2023-03-30T02:27:06.155Z,0.00
2023-03-30T02:28:05.553Z,0.00
2023-03-30T02:29:06.292Z,0.00
2023-03-30T02:30:05.584Z,0.00
2023-03-30T02:31:05.850Z,0.00
2023-03-30T02:32:05.701Z,0.00
2023-03-30T02:33:05.909Z,0.00
2023-03-30T02:34:05.665Z,0.00
2023-03-30T02:35:06.382Z,0.00
2023-03-30T02:36:05.930Z,0.00
2023-03-30T02:37:05.763Z,0.00
2023-03-30T02:38:05.878Z,0.00
2023-03-30T02:39:05.870Z,0.00
2023-03-30T02:40:05.900Z,0.00
2023-03-30T02:41:06.108Z,0.00
2023-03-30T02:42:05.851Z,0.00
2023-03-30T02:43:05.874Z,0.00
2023-03-30T02:44:06.182Z,0.00
2023-03-30T02:45:05.952Z,0.00
2023-03-30T02:46:06.048Z,0.00
2023-03-30T02:47:06.061Z,0.00
2023-03-30T02:48:06.130Z,0.00
2023-03-30T02:49:06.073Z,0.00
2023-03-30T02:50:06.118Z,0.00
2023-03-30T02:51:06.424Z,0.00
2023-03-30T02:52:06.157Z,0.00
2023-03-30T02:53:06.189Z,0.00
2023-03-30T02:54:06.218Z,0.00
2023-03-30T02:55:06.237Z,0.00
2023-03-30T02:56:06.239Z,0.00
2023-03-30T02:57:06.296Z,0.00
2023-03-30T02:58:06.291Z,0.00
2023-03-30T02:59:06.291Z,0.00
2023-03-30T03:00:06.344Z,0.00
2023-03-30T03:01:06.826Z,0.00
2023-03-30T03:02:06.521Z,0.00
2023-03-30T03:03:06.496Z,0.00
2023-03-30T03:04:06.517Z,0.00
2023-03-30T03:05:06.528Z,0.00
2023-03-30T03:06:06.541Z,0.00
2023-03-30T03:07:06.549Z,0.00
2023-03-30T03:08:06.603Z,0.00
2023-03-30T03:09:06.645Z,0.00
2023-03-30T03:10:06.676Z,0.00
2023-03-30T03:11:06.998Z,0.00
2023-03-30T03:12:06.747Z,0.00
2023-03-30T03:13:06.726Z,0.00
2023-03-30T03:14:06.736Z,0.00
2023-03-30T03:15:06.741Z,0.00
2023-03-30T03:16:06.808Z,0.00
2023-03-30T03:17:06.870Z,0.00
2023-03-30T03:18:06.893Z,0.00
2023-03-30T03:19:06.893Z,0.00
2023-03-30T03:20:06.888Z,0.00
2023-03-30T03:21:06.896Z,0.00
2023-03-30T03:22:06.892Z,0.00
2023-03-30T03:23:06.923Z,0.00
2023-03-30T03:24:06.914Z,0.00
2023-03-30T03:25:06.929Z,0.00
2023-03-30T03:26:06.961Z,0.00
2023-03-30T03:27:07.013Z,0.00
2023-03-30T03:28:07.067Z,0.00
2023-03-30T03:29:07.026Z,0.00
2023-03-30T03:30:07.063Z,0.00
2023-03-30T03:31:07.634Z,0.00
2023-03-30T03:32:07.213Z,0.00
2023-03-30T03:33:07.265Z,0.00
2023-03-30T03:34:07.197Z,0.00
2023-03-30T03:35:07.280Z,0.00
2023-03-30T03:36:07.381Z,0.00
2023-03-30T03:37:07.357Z,0.00
2023-03-30T03:38:07.436Z,0.00
2023-03-30T03:39:07.451Z,0.00
2023-03-30T03:40:07.447Z,0.00
2023-03-30T03:41:07.475Z,0.00
2023-03-30T03:42:07.420Z,0.00
2023-03-30T03:43:08.948Z,0.00
2023-03-30T03:44:07.482Z,0.00
2023-03-30T03:45:07.469Z,0.00
2023-03-30T03:46:07.506Z,0.00
2023-03-30T03:47:07.533Z,0.00
2023-03-30T03:48:07.649Z,0.00
2023-03-30T03:49:07.578Z,0.00
2023-03-30T03:50:07.629Z,0.00
2023-03-30T03:51:07.649Z,0.00
2023-03-30T03:52:07.668Z,0.00
2023-03-30T03:53:07.691Z,0.00
2023-03-30T03:54:07.723Z,0.00
2023-03-30T03:55:07.760Z,0.00
2023-03-30T03:56:07.768Z,0.00
2023-03-30T03:57:07.865Z,0.00
2023-03-30T03:58:07.824Z,0.00
2023-03-30T03:59:07.808Z,0.00
2023-03-30T04:00:07.839Z,0.00
2023-03-30T04:01:08.157Z,0.00
2023-03-30T04:02:07.910Z,0.00
2023-03-30T04:03:07.991Z,0.00
2023-03-30T04:04:08.024Z,0.00
2023-03-30T04:05:08.034Z,0.00
2023-03-30T04:06:08.051Z,0.00
2023-03-30T04:07:08.053Z,0.00
2023-03-30T04:08:08.065Z,0.00
2023-03-30T04:09:09.015Z,0.00
2023-03-30T04:10:08.131Z,0.00
2023-03-30T04:11:08.236Z,0.00
2023-03-30T04:12:08.149Z,0.00
2023-03-30T04:13:08.199Z,0.00
2023-03-30T04:14:08.231Z,0.00
2023-03-30T04:15:08.257Z,0.00
2023-03-30T04:16:08.317Z,0.00
2023-03-30T04:17:08.362Z,0.00
2023-03-30T04:18:08.468Z,0.00
2023-03-30T04:19:08.388Z,0.00
2023-03-30T04:20:08.423Z,0.00
2023-03-30T04:21:08.430Z,0.00
2023-03-30T04:22:08.486Z,0.00
2023-03-30T04:23:08.557Z,0.00
2023-03-30T04:24:08.563Z,0.00
2023-03-30T04:25:08.572Z,0.00
2023-03-30T04:26:08.610Z,0.00
2023-03-30T04:27:08.626Z,0.00
2023-03-30T04:28:08.691Z,0.00
2023-03-30T04:29:08.744Z,0.00
2023-03-30T04:30:08.764Z,0.00
2023-03-30T04:31:08.771Z,0.00
2023-03-30T04:32:08.904Z,0.00
2023-03-30T04:33:08.883Z,0.00
2023-03-30T04:34:08.910Z,0.00
2023-03-30T04:35:08.956Z,0.00
2023-03-30T04:36:09.014Z,4.00
2023-03-30T04:37:09.035Z,4.00
2023-03-30T04:38:09.116Z,4.00
2023-03-30T04:39:09.110Z,0.00
2023-03-30T04:40:09.124Z,4.00
2023-03-30T04:41:09.224Z,4.00
2023-03-30T04:42:09.146Z,8.00
2023-03-30T04:43:09.184Z,8.00
2023-03-30T04:44:09.228Z,8.00
2023-03-30T04:45:09.238Z,12.00
2023-03-30T04:46:09.302Z,16.00
2023-03-30T04:47:09.329Z,24.00
2023-03-30T04:48:09.456Z,24.00
2023-03-30T04:49:09.399Z,32.00
2023-03-30T04:50:09.573Z,32.00
2023-03-30T04:51:09.505Z,40.00
2023-03-30T04:52:09.568Z,48.00
2023-03-30T04:53:09.521Z,52.00
2023-03-30T04:54:10.285Z,60.00
2023-03-30T04:55:09.596Z,68.00
2023-03-30T04:56:09.644Z,76.00
2023-03-30T04:57:09.708Z,88.00
2023-03-30T04:58:09.728Z,84.00
2023-03-30T04:59:09.777Z,96.00
2023-03-30T05:00:09.872Z,104.00
2023-03-30T05:01:10.310Z,116.00
2023-03-30T05:02:09.895Z,136.00
2023-03-30T05:03:10.115Z,140.00
2023-03-30T05:04:09.940Z,160.00
2023-03-30T05:05:10.010Z,160.00
2023-03-30T05:06:09.989Z,176.00
2023-03-30T05:07:10.247Z,180.00
2023-03-30T05:08:10.067Z,216.00
2023-03-30T05:09:10.091Z,244.00
2023-03-30T05:10:10.132Z,248.00
2023-03-30T05:11:10.178Z,260.00
2023-03-30T05:12:10.223Z,252.00
2023-03-30T05:13:10.250Z,240.00
2023-03-30T05:14:10.292Z,232.00
2023-03-30T05:15:10.265Z,216.00
2023-03-30T05:16:10.253Z,212.00
2023-03-30T05:17:10.424Z,188.00
2023-03-30T05:18:10.422Z,196.00
2023-03-30T05:19:11.061Z,196.00
2023-03-30T05:20:10.409Z,204.00
2023-03-30T05:21:10.415Z,216.00
2023-03-30T05:22:10.704Z,248.00
2023-03-30T05:23:10.477Z,288.00
2023-03-30T05:24:10.474Z,312.00
2023-03-30T05:25:10.512Z,388.00
2023-03-30T05:26:10.559Z,464.00
2023-03-30T05:27:10.539Z,520.00
2023-03-30T05:28:11.241Z,588.00
2023-03-30T05:29:10.572Z,588.00
2023-03-30T05:30:11.301Z,648.00
2023-03-30T05:31:10.577Z,704.00
2023-03-30T05:32:10.558Z,732.00
2023-03-30T05:33:10.564Z,720.00
2023-03-30T05:34:10.607Z,600.00
2023-03-30T05:35:10.644Z,604.00
2023-03-30T05:36:10.703Z,632.00
2023-03-30T05:37:10.758Z,648.00
2023-03-30T05:38:10.801Z,628.00
2023-03-30T05:39:10.808Z,648.00
2023-03-30T05:40:10.804Z,728.00
2023-03-30T05:41:10.817Z,772.00
2023-03-30T05:42:10.820Z,796.00
2023-03-30T05:43:10.814Z,792.00
2023-03-30T05:44:10.816Z,768.00
2023-03-30T05:45:10.906Z,756.00
2023-03-30T05:46:11.026Z,808.00
2023-03-30T05:47:10.952Z,784.00
2023-03-30T05:48:10.949Z,768.00
2023-03-30T05:49:10.992Z,708.00
2023-03-30T05:50:10.979Z,720.00
2023-03-30T05:51:10.988Z,772.00
2023-03-30T05:52:11.044Z,876.00
2023-03-30T05:53:11.100Z,864.00
2023-03-30T05:54:11.161Z,920.00
2023-03-30T05:55:11.199Z,988.00
2023-03-30T05:56:11.250Z,1224.00
2023-03-30T05:57:11.345Z,1432.00
2023-03-30T05:58:11.281Z,1648.00
2023-03-30T05:59:11.270Z,1872.00
2023-03-30T06:00:11.293Z,1876.00
2023-03-30T06:01:11.336Z,1904.00
2023-03-30T06:02:11.389Z,1984.00
2023-03-30T06:03:11.515Z,1860.00
2023-03-30T06:04:11.653Z,1652.00
2023-03-30T06:05:11.613Z,1500.00
2023-03-30T06:06:11.515Z,1412.00
2023-03-30T06:07:11.552Z,1252.00
2023-03-30T06:08:11.543Z,1140.00
2023-03-30T06:09:11.593Z,992.00
2023-03-30T06:10:11.632Z,952.00
2023-03-30T06:11:11.652Z,956.00
2023-03-30T06:12:11.684Z,948.00
2023-03-30T06:13:11.722Z,948.00
2023-03-30T06:14:11.720Z,988.00
2023-03-30T06:15:11.707Z,1124.00
2023-03-30T06:16:11.803Z,1360.00
2023-03-30T06:17:11.802Z,1504.00
2023-03-30T06:18:11.834Z,1416.00
2023-03-30T06:19:11.836Z,1556.00
2023-03-30T06:20:11.866Z,1588.00
2023-03-30T06:21:11.884Z,1604.00
2023-03-30T06:22:11.930Z,1656.00
2023-03-30T06:23:11.997Z,1832.00
2023-03-30T06:24:12.056Z,1776.00
2023-03-30T06:25:12.020Z,1728.00
2023-03-30T06:26:12.081Z,1620.00
2023-03-30T06:27:12.129Z,1648.00
2023-03-30T06:28:12.171Z,1500.00
2023-03-30T06:29:12.174Z,1288.00
2023-03-30T06:30:12.216Z,1268.00
2023-03-30T06:31:12.343Z,1204.00
2023-03-30T06:32:12.358Z,1236.00
2023-03-30T06:33:12.359Z,1268.00
2023-03-30T06:34:12.257Z,1276.00
2023-03-30T06:35:12.286Z,1340.00
2023-03-30T06:36:12.358Z,1444.00
2023-03-30T06:37:12.330Z,1508.00
2023-03-30T06:38:12.309Z,1720.00
2023-03-30T06:39:12.329Z,1776.00
2023-03-30T06:40:12.365Z,1760.00
2023-03-30T06:41:12.404Z,1864.00
2023-03-30T06:42:12.454Z,1940.00
2023-03-30T06:43:12.498Z,1944.00
2023-03-30T06:44:12.516Z,2044.00
2023-03-30T06:45:12.620Z,1848.00
2023-03-30T06:46:12.790Z,1720.00
2023-03-30T06:47:12.640Z,1772.00
2023-03-30T06:48:12.693Z,1912.00
2023-03-30T06:49:12.698Z,1916.00
2023-03-30T06:50:12.702Z,1936.00
2023-03-30T06:51:12.708Z,1972.00
2023-03-30T06:52:12.752Z,1992.00
2023-03-30T06:53:12.816Z,2184.00
2023-03-30T06:54:12.866Z,2300.00
2023-03-30T06:55:12.883Z,2100.00
2023-03-30T06:56:12.948Z,1848.00
2023-03-30T06:57:13.053Z,1852.00
2023-03-30T06:58:13.057Z,1760.00
2023-03-30T06:59:13.109Z,1624.00
2023-03-30T07:00:13.109Z,1484.00
2023-03-30T07:01:13.228Z,1580.00
2023-03-30T07:02:13.160Z,1604.00
2023-03-30T07:03:13.262Z,1724.00
2023-03-30T07:04:13.305Z,1828.00
2023-03-30T07:05:13.245Z,1868.00
2023-03-30T07:06:15.284Z,1716.00
2023-03-30T07:07:13.310Z,1640.00
2023-03-30T07:08:13.304Z,1816.00
2023-03-30T07:09:13.298Z,2116.00
2023-03-30T07:10:13.316Z,2496.00
2023-03-30T07:11:13.423Z,2684.00
2023-03-30T07:12:13.346Z,3356.00
2023-03-30T07:13:13.373Z,3960.00
2023-03-30T07:14:13.394Z,4208.00
2023-03-30T07:15:13.418Z,4196.00
2023-03-30T07:16:13.509Z,4084.00
2023-03-30T07:17:13.561Z,3756.00
2023-03-30T07:18:13.745Z,3608.00
2023-03-30T07:19:13.599Z,3536.00
2023-03-30T07:20:13.651Z,3528.00
2023-03-30T07:21:13.711Z,3708.00
2023-03-30T07:22:13.771Z,3824.00
2023-03-30T07:23:13.820Z,3660.00
2023-03-30T07:24:13.861Z,3836.00
2023-03-30T07:25:13.880Z,3940.00
2023-03-30T07:26:13.945Z,4088.00
2023-03-30T07:27:13.991Z,3948.00
2023-03-30T07:28:13.988Z,3508.00
2023-03-30T07:29:14.041Z,3648.00
2023-03-30T07:30:21.988Z,4376.00
2023-03-30T07:31:14.140Z,5340.00
2023-03-30T07:32:14.124Z,5756.00
2023-03-30T07:33:14.157Z,6132.00
2023-03-30T07:34:14.174Z,7172.00
2023-03-30T07:35:14.204Z,8792.00
2023-03-30T07:36:14.307Z,10476.00
2023-03-30T07:37:20.209Z,13608.00
2023-03-30T07:38:14.363Z,13852.00
2023-03-30T07:39:14.365Z,15056.00
2023-03-30T07:40:14.435Z,19072.00
2023-03-30T07:41:14.460Z,28352.00
2023-03-30T07:42:14.530Z,22496.00
2023-03-30T07:43:14.532Z,15840.00
2023-03-30T07:44:14.585Z,18624.00
2023-03-30T07:45:16.474Z,36352.00
2023-03-30T07:46:14.756Z,55840.00
2023-03-30T07:47:14.697Z,85824.00
2023-03-30T07:48:14.766Z,75584.00
2023-03-30T07:49:14.728Z,99488.00
2023-03-30T07:50:14.822Z,37344.00
2023-03-30T07:51:14.860Z,26112.00
2023-03-30T07:52:14.908Z,35296.00
2023-03-30T07:53:14.947Z,41280.00
2023-03-30T07:54:14.991Z,18464.00
2023-03-30T07:55:15.023Z,14928.00
2023-03-30T07:56:15.044Z,17952.00
2023-03-30T07:57:15.129Z,75648.00
2023-03-30T07:58:15.112Z,14460.00
2023-03-30T07:59:15.163Z,12080.00
2023-03-30T08:00:15.172Z,13464.00
2023-03-30T08:01:15.204Z,11132.00
2023-03-30T08:02:15.199Z,8376.00
2023-03-30T08:03:15.387Z,7900.00
2023-03-30T08:04:15.343Z,7828.00
2023-03-30T08:05:15.380Z,8928.00
2023-03-30T08:06:15.251Z,7856.00
2023-03-30T08:07:15.256Z,7364.00
2023-03-30T08:08:15.303Z,6252.00
2023-03-30T08:09:15.327Z,5352.00
2023-03-30T08:10:15.359Z,5164.00
2023-03-30T08:11:15.416Z,4936.00
2023-03-30T08:12:15.473Z,4972.00
2023-03-30T08:13:15.515Z,5020.00
2023-03-30T08:14:15.560Z,5664.00
2023-03-30T08:15:15.544Z,7412.00
2023-03-30T08:16:15.609Z,8768.00
2023-03-30T08:17:15.608Z,9996.00
2023-03-30T08:18:15.589Z,11120.00
2023-03-30T08:19:15.597Z,11480.00
2023-03-30T08:20:15.590Z,12032.00
2023-03-30T08:21:15.633Z,23136.00
2023-03-30T08:22:15.716Z,26912.00
2023-03-30T08:23:15.727Z,15396.00
2023-03-30T08:24:15.770Z,11172.00
2023-03-30T08:25:15.766Z,9808.00
2023-03-30T08:26:15.832Z,8772.00
2023-03-30T08:27:15.858Z,8408.00
2023-03-30T08:28:15.873Z,7560.00
2023-03-30T08:29:15.892Z,8152.00
2023-03-30T08:30:15.915Z,7900.00
2023-03-30T08:31:15.915Z,7256.00
2023-03-30T08:32:15.875Z,6788.00
2023-03-30T08:33:16.177Z,5760.00
2023-03-30T08:34:16.015Z,4752.00
2023-03-30T08:35:16.021Z,4136.00
2023-03-30T08:36:16.018Z,3768.00
2023-03-30T08:37:15.999Z,4424.00
2023-03-30T08:38:16.051Z,4544.00
2023-03-30T08:39:16.072Z,4516.00
2023-03-30T08:40:19.055Z,4772.00
2023-03-30T08:41:16.080Z,4392.00
2023-03-30T08:42:16.109Z,3992.00
2023-03-30T08:43:16.114Z,3320.00
2023-03-30T08:44:16.145Z,2900.00
2023-03-30T08:45:16.175Z,2456.00
2023-03-30T08:46:16.251Z,2720.00
2023-03-30T08:47:16.202Z,2752.00
2023-03-30T08:48:16.221Z,2412.00
2023-03-30T08:49:16.221Z,2740.00
2023-03-30T08:50:16.289Z,3564.00
2023-03-30T08:51:16.374Z,3748.00
2023-03-30T08:52:16.376Z,4836.00
2023-03-30T08:53:16.372Z,4048.00
2023-03-30T08:54:16.368Z,3872.00
2023-03-30T08:55:16.368Z,4108.00
2023-03-30T08:56:16.378Z,3288.00
2023-03-30T08:57:17.776Z,2876.00
2023-03-30T08:58:16.464Z,3384.00
2023-03-30T08:59:16.484Z,3380.00
2023-03-30T09:00:16.534Z,2744.00
2023-03-30T09:01:16.622Z,2424.00
2023-03-30T09:02:16.603Z,2644.00
2023-03-30T09:03:16.637Z,3532.00
2023-03-30T09:04:16.595Z,4824.00
2023-03-30T09:05:16.694Z,4960.00
2023-03-30T09:06:16.694Z,4560.00
2023-03-30T09:07:16.722Z,4032.00
2023-03-30T09:08:16.745Z,5040.00
2023-03-30T09:09:16.787Z,7860.00
2023-03-30T09:10:16.816Z,9928.00
2023-03-30T09:11:16.834Z,16268.00
2023-03-30T09:12:16.840Z,13936.00
2023-03-30T09:13:16.832Z,11800.00
2023-03-30T09:14:16.857Z,12596.00
2023-03-30T09:15:16.917Z,13852.00
2023-03-30T09:16:16.960Z,10348.00
2023-03-30T09:17:16.932Z,6388.00
2023-03-30T09:18:16.936Z,4244.00
2023-03-30T09:19:17.010Z,3476.00
2023-03-30T09:20:17.034Z,3744.00
2023-03-30T09:21:17.040Z,4508.00
2023-03-30T09:22:17.050Z,6228.00
2023-03-30T09:23:17.029Z,8456.00
2023-03-30T09:24:17.080Z,8568.00
2023-03-30T09:25:17.072Z,8368.00
2023-03-30T09:27:43.106Z,7856.00
2023-03-30T09:28:43.160Z,6936.00
2023-03-30T09:29:43.161Z,6292.00
2023-03-30T09:30:43.149Z,4644.00
2023-03-30T09:31:43.253Z,4688.00
2023-03-30T09:32:43.219Z,5748.00
2023-03-30T09:33:43.149Z,5980.00
2023-03-30T09:34:43.214Z,4348.00
2023-03-30T09:35:43.222Z,3604.00
2023-03-30T09:36:43.218Z,3932.00
2023-03-30T09:37:43.300Z,3948.00
2023-03-30T09:38:43.291Z,3888.00
2023-03-30T09:39:43.329Z,3368.00
2023-03-30T09:40:43.337Z,2644.00
2023-03-30T09:41:43.339Z,1948.00
2023-03-30T09:42:43.390Z,1552.00
2023-03-30T09:43:43.357Z,1520.00
2023-03-30T09:44:43.423Z,1320.00
2023-03-30T09:45:43.440Z,1328.00
2023-03-30T09:46:43.569Z,1576.00
2023-03-30T09:47:43.511Z,1708.00
2023-03-30T09:48:43.450Z,1732.00
2023-03-30T09:49:43.454Z,1844.00
2023-03-30T09:50:43.493Z,1712.00
2023-03-30T09:51:43.517Z,1648.00
2023-03-30T09:52:43.534Z,1756.00
2023-03-30T09:53:43.563Z,2000.00
2023-03-30T09:54:43.583Z,2368.00
2023-03-30T09:55:43.592Z,3032.00
2023-03-30T09:56:43.607Z,3460.00
2023-03-30T09:57:43.617Z,3820.00
2023-03-30T09:58:43.625Z,3904.00
2023-03-30T09:59:43.620Z,4268.00
2023-03-30T10:00:43.650Z,4368.00
2023-03-30T10:01:43.720Z,4740.00
2023-03-30T10:02:43.773Z,4920.00
2023-03-30T10:03:43.889Z,5116.00
2023-03-30T10:04:43.825Z,5120.00
2023-03-30T10:05:43.827Z,5236.00
2023-03-30T10:06:43.838Z,5592.00
2023-03-30T10:07:43.846Z,6568.00
2023-03-30T10:08:43.852Z,8488.00
2023-03-30T10:09:43.862Z,10128.00
2023-03-30T10:10:43.921Z,11480.00
2023-03-30T10:11:43.967Z,11920.00
2023-03-30T10:12:44.021Z,11388.00
2023-03-30T10:13:44.020Z,10140.00
2023-03-30T10:14:44.062Z,9764.00
2023-03-30T10:15:44.152Z,9792.00
2023-03-30T10:16:44.163Z,10488.00
2023-03-30T10:17:44.198Z,11860.00
2023-03-30T10:18:44.200Z,13940.00
2023-03-30T10:19:48.601Z,13852.00
2023-03-30T10:20:44.254Z,13296.00
2023-03-30T10:21:44.246Z,12452.00
2023-03-30T10:22:44.291Z,11324.00
2023-03-30T10:23:44.334Z,15220.00
2023-03-30T10:24:44.298Z,16332.00
2023-03-30T10:25:44.344Z,21504.00
2023-03-30T10:26:44.423Z,41536.00
2023-03-30T10:27:44.405Z,39200.00
2023-03-30T10:28:44.449Z,35616.00
2023-03-30T10:29:44.497Z,34304.00
2023-03-30T10:30:44.507Z,31360.00
2023-03-30T10:31:44.628Z,33888.00
2023-03-30T10:32:44.647Z,34624.00
2023-03-30T10:33:44.673Z,34560.00
2023-03-30T10:34:44.736Z,32960.00
2023-03-30T10:35:44.849Z,30912.00
2023-03-30T10:36:46.146Z,30016.00
2023-03-30T10:37:44.821Z,31552.00
2023-03-30T10:38:44.871Z,29792.00
2023-03-30T10:39:44.933Z,28512.00
2023-03-30T10:40:44.991Z,26464.00
2023-03-30T10:41:45.071Z,27584.00
2023-03-30T10:42:45.041Z,28704.00
2023-03-30T10:43:45.092Z,27936.00
2023-03-30T10:44:45.139Z,25152.00
2023-03-30T10:45:45.177Z,24928.00
2023-03-30T10:46:45.298Z,23968.00
2023-03-30T10:47:45.318Z,23584.00
2023-03-30T10:48:45.352Z,25376.00
2023-03-30T10:49:45.367Z,23712.00
2023-03-30T10:50:45.393Z,23360.00
2023-03-30T10:51:45.414Z,22240.00
2023-03-30T10:52:52.256Z,24928.00
2023-03-30T10:53:45.439Z,14080.00
2023-03-30T10:54:45.489Z,27936.00
2023-03-30T10:55:45.534Z,20256.00
2023-03-30T10:56:45.668Z,16348.00
2023-03-30T10:57:45.655Z,14464.00
2023-03-30T10:58:45.709Z,19520.00
2023-03-30T10:59:45.777Z,22080.00
2023-03-30T11:00:45.767Z,16492.00
2023-03-30T11:01:45.825Z,16400.00
2023-03-30T11:02:45.903Z,24992.00
2023-03-30T11:03:46.009Z,24736.00
2023-03-30T11:04:45.837Z,23168.00
2023-03-30T11:05:45.872Z,17856.00
2023-03-30T11:06:45.871Z,20320.00
2023-03-30T11:07:45.927Z,16992.00
2023-03-30T11:08:45.961Z,14956.00
2023-03-30T11:09:45.978Z,15280.00
2023-03-30T11:10:46.005Z,16512.00
2023-03-30T11:11:46.031Z,15812.00
2023-03-30T11:12:46.067Z,13648.00
2023-03-30T11:13:46.124Z,10744.00
2023-03-30T11:14:46.149Z,10112.00
2023-03-30T11:15:46.144Z,10280.00
2023-03-30T11:16:46.159Z,9476.00
2023-03-30T11:17:46.162Z,9404.00
2023-03-30T11:18:46.238Z,9412.00
2023-03-30T11:19:46.241Z,10304.00
2023-03-30T11:20:46.309Z,13108.00
2023-03-30T11:21:46.350Z,14100.00
2023-03-30T11:22:46.358Z,13412.00
2023-03-30T11:23:46.387Z,11040.00
2023-03-30T11:24:46.505Z,10740.00
2023-03-30T11:25:46.409Z,11156.00
2023-03-30T11:26:46.422Z,9956.00
2023-03-30T11:27:46.465Z,9440.00
2023-03-30T11:28:46.558Z,8368.00
2023-03-30T11:29:46.607Z,7608.00
2023-03-30T11:30:46.589Z,8284.00
2023-03-30T11:31:46.675Z,8916.00
2023-03-30T11:32:46.650Z,9504.00
2023-03-30T11:33:46.873Z,10268.00
2023-03-30T11:34:46.677Z,14760.00
2023-03-30T11:35:46.771Z,10464.00
2023-03-30T11:36:46.773Z,11480.00
2023-03-30T11:37:46.814Z,17024.00
2023-03-30T11:38:46.816Z,17952.00
2023-03-30T11:39:46.864Z,15756.00
2023-03-30T11:40:46.931Z,13956.00
2023-03-30T11:41:46.933Z,10544.00
2023-03-30T11:42:46.995Z,10788.00
2023-03-30T11:43:47.029Z,12036.00
2023-03-30T11:44:47.056Z,9888.00
2023-03-30T11:45:47.090Z,8956.00
2023-03-30T11:46:47.132Z,8916.00
2023-03-30T11:47:47.171Z,9592.00
2023-03-30T11:48:47.161Z,10004.00
2023-03-30T11:49:47.182Z,11076.00
2023-03-30T11:50:47.218Z,11548.00
2023-03-30T11:51:47.277Z,12768.00
2023-03-30T11:52:47.317Z,12824.00
2023-03-30T11:53:47.340Z,13380.00
2023-03-30T11:55:01.888Z,13236.00
2023-03-30T11:55:47.358Z,12996.00
2023-03-30T11:56:47.422Z,13012.00
2023-03-30T11:57:47.470Z,13296.00
2023-03-30T11:58:47.481Z,13316.00
2023-03-30T11:59:47.495Z,13324.00
2023-03-30T12:00:47.536Z,13200.00
2023-03-30T12:01:47.564Z,13288.00
2023-03-30T12:02:47.712Z,13012.00
2023-03-30T12:03:47.718Z,12384.00
2023-03-30T12:04:47.760Z,11328.00
2023-03-30T12:05:47.696Z,11080.00
2023-03-30T12:06:47.820Z,10636.00
2023-03-30T12:07:47.800Z,9692.00
2023-03-30T12:08:47.851Z,9340.00
2023-03-30T12:09:47.878Z,8668.00
2023-03-30T12:10:47.902Z,8828.00
2023-03-30T12:11:47.948Z,8488.00
2023-03-30T12:12:47.948Z,8136.00
2023-03-30T12:13:51.659Z,7480.00
2023-03-30T12:14:48.721Z,6684.00
2023-03-30T12:15:48.076Z,6328.00
2023-03-30T12:16:48.150Z,6356.00
2023-03-30T12:17:48.137Z,6612.00
2023-03-30T12:18:48.197Z,6980.00
2023-03-30T12:19:56.173Z,8280.00
2023-03-30T12:20:48.233Z,10004.00
2023-03-30T12:21:49.086Z,12192.00
2023-03-30T12:22:48.297Z,14976.00
2023-03-30T12:23:48.346Z,14908.00
2023-03-30T12:24:48.372Z,15676.00
2023-03-30T12:25:48.398Z,15636.00
2023-03-30T12:27:02.184Z,15284.00
2023-03-30T12:27:48.422Z,15704.00
2023-03-30T12:30:02.338Z,14576.00
2023-03-30T12:30:48.471Z,14352.00
2023-03-30T12:31:48.442Z,14616.00